»·PEaware :: N716TH L52-L88

N716TH :: L52-L88

FLIGHT INFORMATION

Flight Status: Arrived
Operator: Privately registered:
United States
More flights under this callsign
Pilot: Danny R. (17997)
Aircraft: CESSNA 172 SKYHAWK
(C172)
More flights by this aircraft type
Origin: L52 Oceano Co
United States
Destination: L88 New Cuyama
United States
More flights between these airports :: More routes between these airports
Route: L52 WYNNR L88
File this flight plan on PilotEdge
Remarks: CAT I Student pilot
Altitude:
(Current/Filed)
5,500ft
Speed:
(Current/Filed)
100kts
Departed: 22-Jan-18 04:14 PM
Arrived: 22-Jan-18 04:49 PM
Distance/Time
Traveled:
47nm/0:34
Distance/Time
To Go:
Arrived

Flight Plot

Page will automatically refresh every two minutes.


Map Options




Map Legend


Flown Route
Filed Route
Departure Airport
Arrival Airport
Navaid (VOR, NDB)
Fix

Horizontal Profiles

Position Reports

Time Latitude Longitude Heading Altitude Ground
Speed
22-Jan-18 16:00 35.102465 -120.622783 34 18ft 0kts
22-Jan-18 16:01 35.102465 -120.622783 34 18ft 0kts
22-Jan-18 16:02 35.102465 -120.622783 34 18ft 0kts
22-Jan-18 16:03 35.102465 -120.622783 34 18ft 0kts
22-Jan-18 16:04 35.102465 -120.622783 34 18ft 0kts
22-Jan-18 16:05 35.102465 -120.622783 34 18ft 0kts
22-Jan-18 16:06 35.102465 -120.622783 34 18ft 0kts
22-Jan-18 16:07 35.102465 -120.622783 34 18ft 0kts
22-Jan-18 16:08 35.102465 -120.622783 34 18ft 0kts
22-Jan-18 16:09 35.102465 -120.622783 34 18ft 0kts
22-Jan-18 16:10 35.102465 -120.622783 34 18ft 0kts
22-Jan-18 16:11 35.102492 -120.622881 196 18ft 5kts
22-Jan-18 16:12 35.101767 -120.622221 203 18ft 5kts
22-Jan-18 16:13 35.099877 -120.620102 122 18ft 12kts
22-Jan-18 16:14 35.099427 -120.619473 60 18ft 0kts
22-Jan-18 16:15 35.099427 -120.619474 60 18ft 0kts
22-Jan-18 16:16 35.099427 -120.619474 60 18ft 0kts
22-Jan-18 16:17 35.099427 -120.619474 60 18ft 0kts
22-Jan-18 16:18 35.099427 -120.619474 60 18ft 0kts
22-Jan-18 16:19 35.099427 -120.619474 60 18ft 0kts
22-Jan-18 16:20 35.103918 -120.626321 310 344ft 47kts
22-Jan-18 16:21 35.104962 -120.640301 212 1141ft 72kts
22-Jan-18 16:22 35.087198 -120.625231 121 1748ft 101kts
22-Jan-18 16:23 35.084470 -120.595513 55 2313ft 91kts
22-Jan-18 16:24 35.095506 -120.569192 52 2909ft 87kts
22-Jan-18 16:25 35.103477 -120.540771 85 3448ft 93kts
22-Jan-18 16:26 35.102446 -120.508825 84 3973ft 94kts
22-Jan-18 16:27 35.101572 -120.478005 85 4527ft 89kts
22-Jan-18 16:28 35.101562 -120.452568 78 4980ft 91kts
22-Jan-18 16:29 35.106224 -120.416263 58 5496ft 103kts
22-Jan-18 16:30 35.111391 -120.385220 78 5493ft 116kts
22-Jan-18 16:31 35.113334 -120.348245 80 5495ft 114kts
22-Jan-18 16:32 35.114823 -120.311479 79 5535ft 111kts
22-Jan-18 16:33 35.116312 -120.273376 80 5534ft 112kts
22-Jan-18 16:34 35.117799 -120.235121 80 5535ft 112kts
22-Jan-18 16:35 35.113010 -120.197107 110 5522ft 120kts
22-Jan-18 16:36 35.099906 -120.158820 111 5502ft 122kts
22-Jan-18 16:37 35.087021 -120.120230 110 5503ft 122kts
22-Jan-18 16:38 35.074163 -120.081747 111 5499ft 123kts
22-Jan-18 16:39 35.061220 -120.043046 110 5497ft 123kts
22-Jan-18 16:40 35.048843 -120.006096 110 5491ft 122kts
22-Jan-18 16:41 35.036042 -119.967935 111 5276ft 126kts
22-Jan-18 16:42 35.022614 -119.928016 111 4873ft 128kts
22-Jan-18 16:43 35.009065 -119.887721 111 4421ft 128kts
22-Jan-18 16:44 34.995301 -119.847921 109 3975ft 126kts
22-Jan-18 16:45 34.981963 -119.808959 107 3510ft 124kts
22-Jan-18 16:46 34.968993 -119.770590 108 3179ft 112kts
22-Jan-18 16:47 34.960168 -119.736852 93 3182ft 100kts
22-Jan-18 16:48 34.957016 -119.702450 98 3218ft 104kts
22-Jan-18 16:49 34.947605 -119.670079 97 3376ft 92kts
22-Jan-18 16:50 34.944685 -119.637687 83 3410ft 92kts
22-Jan-18 16:51 34.930940 -119.624190 211 3258ft 71kts
22-Jan-18 16:52 34.921649 -119.637748 294 3244ft 59kts
22-Jan-18 16:53 34.928387 -119.657317 300 2757ft 64kts
22-Jan-18 16:54 34.935338 -119.674126 298 2377ft 54kts
22-Jan-18 16:55 34.940363 -119.686579 296 2207ft 26kts
22-Jan-18 16:56 34.942573 -119.691294 42 2207ft 0kts
22-Jan-18 16:57 34.942729 -119.690460 24 2207ft 0kts
22-Jan-18 16:58 34.942729 -119.690460 24 2207ft 0kts
22-Jan-18 16:59 34.942729 -119.690460 24 2207ft 0kts
22-Jan-18 17:00 34.942585 -119.690497 2 2207ft 2kts
22-Jan-18 17:01 34.942580 -119.690496 16 2207ft 0kts
22-Jan-18 17:02 34.942580 -119.690496 16 2207ft 0kts

Navigation Log

Ident Type
Flight plan parsing failed, navigation log unavailable